createdAt,value
2019-05-23T00:01:55.155Z,39.79
2019-05-23T00:02:55.145Z,39.79
2019-05-23T00:03:55.129Z,39.87
2019-05-23T00:06:22.346Z,39.81
2019-05-23T00:07:22.343Z,40.16
2019-05-23T00:08:22.339Z,40.37
2019-05-23T00:09:22.327Z,39.88
2019-05-23T00:10:22.323Z,39.87
2019-05-23T00:11:22.311Z,39.86
2019-05-23T00:12:22.305Z,40.19
2019-05-23T00:13:22.299Z,39.86
2019-05-23T00:14:22.290Z,40.04
2019-05-23T00:15:22.286Z,39.97
2019-05-23T00:16:22.279Z,39.93
2019-05-23T00:17:22.272Z,39.82
2019-05-23T00:18:22.266Z,39.84
2019-05-23T00:19:22.262Z,39.89
2019-05-23T00:20:22.259Z,40.08
2019-05-23T00:21:22.248Z,40.24
2019-05-23T00:22:22.239Z,39.93
2019-05-23T00:23:22.240Z,39.92
2019-05-23T00:25:22.275Z,39.89
2019-05-23T00:26:22.218Z,39.97
2019-05-23T00:27:22.248Z,39.93
2019-05-23T00:28:22.200Z,39.92
2019-05-23T00:29:22.192Z,40.36
2019-05-23T00:30:22.184Z,39.91
2019-05-23T00:31:22.201Z,39.93
2019-05-23T00:32:22.195Z,39.90
2019-05-23T00:33:22.210Z,39.87
2019-05-23T00:34:22.180Z,40.02
2019-05-23T00:35:22.173Z,39.99
2019-05-23T00:36:22.168Z,39.84
2019-05-23T00:37:22.160Z,39.94
2019-05-23T00:38:22.156Z,39.84
2019-05-23T00:39:22.149Z,39.93
2019-05-23T00:40:22.141Z,39.91
2019-05-23T00:41:22.136Z,40.00
2019-05-23T00:42:22.132Z,39.90
2019-05-23T00:43:22.125Z,40.17
2019-05-23T00:44:22.118Z,39.92
2019-05-23T00:45:22.325Z,39.96
2019-05-23T00:46:22.110Z,39.96
2019-05-23T00:49:49.327Z,39.90
2019-05-23T00:50:49.319Z,40.17
2019-05-23T00:51:49.315Z,39.90
2019-05-23T00:52:51.308Z,39.94
2019-05-23T00:53:49.301Z,39.88
2019-05-23T00:54:49.296Z,39.94
2019-05-23T00:55:49.285Z,39.94
2019-05-23T00:56:49.282Z,39.85
2019-05-23T00:57:49.279Z,39.94
2019-05-23T00:58:49.270Z,40.15
2019-05-23T00:59:49.262Z,39.95
2019-05-23T01:00:49.469Z,39.94
2019-05-23T01:01:49.268Z,40.04
2019-05-23T01:02:49.240Z,39.84
2019-05-23T01:03:49.235Z,39.95
2019-05-23T01:04:49.228Z,40.03
2019-05-23T01:05:49.221Z,39.96
2019-05-23T01:06:49.212Z,40.00
2019-05-23T01:07:49.206Z,39.96
2019-05-23T01:08:49.200Z,39.97
2019-05-23T01:09:49.191Z,39.88
2019-05-23T01:10:49.184Z,39.90
2019-05-23T01:11:49.176Z,39.95
2019-05-23T01:12:49.171Z,39.96
2019-05-23T01:13:49.167Z,39.92
2019-05-23T01:14:49.160Z,39.90
2019-05-23T01:15:49.152Z,39.90
2019-05-23T01:16:49.147Z,39.98
2019-05-23T01:17:49.136Z,39.86
2019-05-23T01:18:49.130Z,40.04
2019-05-23T01:19:49.325Z,39.95
2019-05-23T01:20:49.126Z,39.93
2019-05-23T01:21:49.107Z,39.93
2019-05-23T01:22:49.102Z,39.96
2019-05-23T01:23:49.096Z,39.98
2019-05-23T01:24:49.091Z,40.05
2019-05-23T01:25:49.082Z,40.24
2019-05-23T01:28:16.311Z,39.96
2019-05-23T01:29:16.295Z,40.00
2019-05-23T01:30:16.290Z,39.98
2019-05-23T01:31:16.284Z,39.95
2019-05-23T01:32:16.281Z,40.03
2019-05-23T01:33:16.266Z,40.00
2019-05-23T01:34:16.258Z,39.89
2019-05-23T01:35:16.260Z,40.12
2019-05-23T01:36:16.246Z,39.93
2019-05-23T01:37:16.240Z,40.01
2019-05-23T01:38:16.233Z,39.92
2019-05-23T01:39:16.232Z,39.88
2019-05-23T01:40:16.223Z,40.69
2019-05-23T01:42:43.437Z,39.95
2019-05-23T01:43:43.469Z,39.99
2019-05-23T01:44:43.438Z,40.04
2019-05-23T01:45:43.432Z,40.66
2019-05-23T01:46:43.426Z,39.97
2019-05-23T01:48:43.411Z,40.10
2019-05-23T01:49:43.404Z,40.03
2019-05-23T01:50:43.399Z,40.01
2019-05-23T01:51:43.396Z,40.00
2019-05-23T01:52:43.401Z,39.88
2019-05-23T01:53:43.381Z,40.09
2019-05-23T01:54:43.374Z,40.11
2019-05-23T01:55:43.367Z,40.01
2019-05-23T01:56:43.360Z,39.97
2019-05-23T01:57:43.358Z,40.00
2019-05-23T01:58:43.353Z,40.10
2019-05-23T01:59:43.343Z,40.00
2019-05-23T02:00:43.340Z,40.14
2019-05-23T02:01:43.335Z,40.11
2019-05-23T02:02:43.328Z,40.03
2019-05-23T02:03:43.319Z,40.00
2019-05-23T02:04:43.312Z,39.97
2019-05-23T02:05:43.305Z,40.23
2019-05-23T02:06:43.305Z,40.03
2019-05-23T02:07:43.292Z,40.07
2019-05-23T02:08:43.287Z,40.11
2019-05-23T02:09:43.280Z,40.04
2019-05-23T02:10:43.278Z,39.96
2019-05-23T02:13:10.490Z,40.12
2019-05-23T02:14:10.481Z,40.02
2019-05-23T02:15:10.474Z,39.95
2019-05-23T02:16:10.470Z,39.99
2019-05-23T02:17:10.462Z,39.98
2019-05-23T02:18:10.454Z,40.24
2019-05-23T02:19:13.578Z,40.03
2019-05-23T02:20:10.441Z,39.95
2019-05-23T02:21:10.433Z,40.06
2019-05-23T02:22:10.425Z,40.00
2019-05-23T02:23:10.421Z,40.02
2019-05-23T02:25:10.406Z,40.21
2019-05-23T02:26:10.401Z,40.02
2019-05-23T02:28:10.385Z,40.04
2019-05-23T02:29:10.395Z,40.03
2019-05-23T02:30:30.080Z,40.10
2019-05-23T02:31:12.369Z,39.97
2019-05-23T02:32:10.365Z,40.05
2019-05-23T02:33:10.355Z,40.33
2019-05-23T02:34:10.350Z,40.19
2019-05-23T02:35:10.401Z,40.10
2019-05-23T02:36:10.334Z,40.04
2019-05-23T02:37:10.327Z,40.18
2019-05-23T02:38:10.320Z,40.06
2019-05-23T02:40:10.313Z,40.10
2019-05-23T02:41:10.307Z,40.08
2019-05-23T02:42:10.296Z,40.09
2019-05-23T02:43:10.290Z,40.04
2019-05-23T02:44:10.283Z,40.24
2019-05-23T02:45:10.287Z,40.25
2019-05-23T02:46:10.269Z,40.20
2019-05-23T02:47:10.269Z,39.96
2019-05-23T02:48:10.258Z,40.17
2019-05-23T02:49:10.252Z,40.57
2019-05-23T02:50:10.245Z,40.20
2019-05-23T02:51:10.238Z,40.07
2019-05-23T02:52:10.233Z,40.11
2019-05-23T02:53:10.227Z,40.14
2019-05-23T02:54:10.220Z,40.28
2019-05-23T02:55:10.212Z,40.18
2019-05-23T02:56:10.214Z,40.03
2019-05-23T02:57:10.207Z,40.17
2019-05-23T02:58:10.190Z,40.17
2019-05-23T02:59:10.183Z,40.10
2019-05-23T03:00:10.179Z,40.09
2019-05-23T03:01:10.171Z,40.72
2019-05-23T03:02:10.164Z,40.22
2019-05-23T03:03:10.159Z,40.16
2019-05-23T03:04:10.150Z,40.19
2019-05-23T03:05:10.141Z,40.10
2019-05-23T03:06:10.134Z,40.17
2019-05-23T03:07:10.125Z,40.14
2019-05-23T03:08:10.134Z,40.27
2019-05-23T03:09:10.129Z,40.81
2019-05-23T03:11:10.117Z,40.18
2019-05-23T03:13:10.121Z,40.18
2019-05-23T03:14:10.110Z,40.24
2019-05-23T03:15:10.101Z,40.25
2019-05-23T03:16:10.095Z,40.12
2019-05-23T03:17:10.295Z,40.13
2019-05-23T03:18:10.084Z,40.18
2019-05-23T03:20:37.293Z,40.46
2019-05-23T03:21:37.290Z,40.42
2019-05-23T03:22:37.285Z,40.38
2019-05-23T03:23:37.273Z,40.44
2019-05-23T03:27:04.501Z,40.31
2019-05-23T03:28:04.494Z,40.34
2019-05-23T03:29:04.488Z,40.22
2019-05-23T03:30:04.672Z,40.86
2019-05-23T03:31:26.613Z,40.58
2019-05-23T03:33:33.688Z,40.27
2019-05-23T03:34:31.681Z,40.43
2019-05-23T03:35:31.675Z,40.60
2019-05-23T03:36:31.696Z,40.83
2019-05-23T03:37:31.662Z,40.59
2019-05-23T03:38:31.680Z,42.11
2019-05-23T03:39:31.653Z,40.93
2019-05-23T03:42:58.858Z,40.51
2019-05-23T03:43:58.850Z,40.35
2019-05-23T03:44:58.848Z,41.11
2019-05-23T03:45:58.848Z,40.64
2019-05-23T03:46:58.832Z,40.42
2019-05-23T03:49:26.049Z,40.73
2019-05-23T03:50:26.052Z,40.51
2019-05-23T03:53:53.253Z,41.23
2019-05-23T03:54:53.248Z,41.00
2019-05-23T03:55:53.482Z,40.77
2019-05-23T03:56:53.234Z,41.79
2019-05-23T03:57:53.227Z,40.73
2019-05-23T03:59:53.211Z,41.03
2019-05-23T04:00:53.205Z,41.32
2019-05-23T04:01:53.199Z,40.96
2019-05-23T04:02:53.193Z,40.43
2019-05-23T04:03:53.185Z,40.87
2019-05-23T04:04:53.178Z,40.95
2019-05-23T04:08:20.411Z,40.48
2019-05-23T04:09:20.394Z,40.81
2019-05-23T04:11:47.610Z,41.11
2019-05-23T04:12:47.599Z,40.52
2019-05-23T04:13:47.601Z,40.49
2019-05-23T04:14:47.587Z,41.08
2019-05-23T04:15:47.581Z,40.48
2019-05-23T04:16:47.573Z,40.43
2019-05-23T04:17:47.568Z,40.88
2019-05-23T04:18:47.569Z,40.67
2019-05-23T04:19:47.551Z,40.41
2019-05-23T04:20:47.544Z,40.85
2019-05-23T04:23:14.777Z,41.97
2019-05-23T04:24:14.790Z,41.54
2019-05-23T04:25:14.768Z,40.55
2019-05-23T04:26:14.764Z,41.05
2019-05-23T04:27:14.773Z,40.23
2019-05-23T04:28:14.756Z,41.94
2019-05-23T04:29:14.740Z,40.50
2019-05-23T04:30:14.726Z,40.35
2019-05-23T04:31:14.723Z,41.30
2019-05-23T04:32:14.718Z,40.63
2019-05-23T04:33:14.705Z,40.95
2019-05-23T04:34:14.699Z,40.21
2019-05-23T04:35:14.692Z,40.62
2019-05-23T04:36:14.685Z,40.59
2019-05-23T04:37:14.681Z,40.28
2019-05-23T04:39:14.661Z,40.82
2019-05-23T04:41:14.746Z,40.93
2019-05-23T04:42:14.642Z,40.95
2019-05-23T04:43:14.635Z,40.97
2019-05-23T04:44:14.627Z,40.14
2019-05-23T04:45:14.618Z,40.78
2019-05-23T04:46:14.613Z,40.34
2019-05-23T04:47:14.722Z,40.33
2019-05-23T04:48:14.609Z,40.60
2019-05-23T04:49:14.603Z,40.61
2019-05-23T04:50:14.602Z,41.01
2019-05-23T04:51:14.597Z,40.77
2019-05-23T04:52:14.587Z,40.64
2019-05-23T04:53:14.593Z,41.68
2019-05-23T04:54:14.593Z,40.94
2019-05-23T04:55:14.597Z,40.64
2019-05-23T04:56:14.581Z,41.21
2019-05-23T04:58:41.798Z,41.69
2019-05-23T04:59:41.796Z,40.19
2019-05-23T05:02:24.771Z,41.37
2019-05-23T05:04:36.234Z,40.51
2019-05-23T05:05:36.217Z,40.46
2019-05-23T05:06:36.215Z,41.06
2019-05-23T05:07:36.198Z,42.02
2019-05-23T05:08:36.191Z,41.10
2019-05-23T05:09:36.185Z,40.65
2019-05-23T05:10:36.177Z,40.78
2019-05-23T05:11:36.170Z,40.69
2019-05-23T05:14:36.148Z,40.56
2019-05-23T05:15:36.145Z,40.43
2019-05-23T05:16:36.138Z,40.64
2019-05-23T05:17:36.129Z,40.64
2019-05-23T05:18:36.121Z,40.78
2019-05-23T05:19:36.133Z,40.50
2019-05-23T05:20:36.113Z,40.56
2019-05-23T05:21:36.101Z,40.89
2019-05-23T05:22:36.094Z,40.77
2019-05-23T05:25:03.308Z,41.13
2019-05-23T05:26:03.309Z,40.53
2019-05-23T05:27:03.302Z,40.70
2019-05-23T05:28:03.290Z,40.82
2019-05-23T05:29:03.488Z,40.79
2019-05-23T05:30:03.283Z,40.55
2019-05-23T05:31:03.349Z,40.75
2019-05-23T05:32:04.132Z,41.21
2019-05-23T05:33:03.264Z,41.07
2019-05-23T05:34:03.249Z,40.68
2019-05-23T05:35:03.248Z,40.70
2019-05-23T05:36:03.534Z,41.36
2019-05-23T05:37:03.245Z,40.53
2019-05-23T05:38:03.228Z,40.94
2019-05-23T05:39:03.221Z,40.64
2019-05-23T05:41:30.455Z,40.25
2019-05-23T05:43:57.599Z,40.88
2019-05-23T05:44:57.648Z,40.57
2019-05-23T05:45:57.587Z,40.66
2019-05-23T05:48:24.823Z,40.67
2019-05-23T05:49:24.823Z,40.58
2019-05-23T05:50:24.811Z,40.79
2019-05-23T05:51:24.808Z,40.59
2019-05-23T05:52:24.797Z,40.24
2019-05-23T05:53:24.788Z,40.37
2019-05-23T05:54:24.782Z,40.82
2019-05-23T05:55:24.779Z,40.76
2019-05-23T05:56:24.770Z,41.20
2019-05-23T05:57:24.764Z,40.64
2019-05-23T05:58:24.755Z,40.56
2019-05-23T05:59:24.753Z,40.79
2019-05-23T06:00:24.744Z,40.65
2019-05-23T06:01:33.773Z,40.32
2019-05-23T06:05:19.173Z,40.92
2019-05-23T06:06:19.179Z,40.49
2019-05-23T06:07:19.160Z,40.08
2019-05-23T06:08:19.159Z,40.40
2019-05-23T06:09:19.147Z,40.44
2019-05-23T06:10:19.142Z,41.93
2019-05-23T06:11:19.139Z,40.59
2019-05-23T06:12:19.130Z,41.14
2019-05-23T06:13:19.122Z,40.44
2019-05-23T06:14:19.114Z,40.71
2019-05-23T06:15:19.114Z,40.60
2019-05-23T06:16:19.119Z,40.34
2019-05-23T06:17:19.094Z,40.38
2019-05-23T06:18:19.090Z,40.75
2019-05-23T06:19:19.085Z,40.22
2019-05-23T06:20:19.075Z,40.50
2019-05-23T06:21:19.085Z,40.60
2019-05-23T06:22:19.064Z,40.13
2019-05-23T06:23:19.064Z,40.58
2019-05-23T06:24:35.643Z,40.70
2019-05-23T06:26:46.266Z,40.56
2019-05-23T06:27:46.266Z,41.43
2019-05-23T06:29:46.263Z,40.63
2019-05-23T06:30:46.240Z,40.63
2019-05-23T06:31:46.274Z,40.72
2019-05-23T06:32:46.232Z,40.91
2019-05-23T06:33:46.223Z,40.83
2019-05-23T06:34:46.214Z,40.52
2019-05-23T06:35:46.210Z,40.49
2019-05-23T06:36:46.204Z,40.25
2019-05-23T06:37:46.199Z,40.84
2019-05-23T06:38:46.193Z,40.92
2019-05-23T06:39:46.186Z,40.69
2019-05-23T06:40:46.181Z,40.78
2019-05-23T06:41:46.193Z,40.41
2019-05-23T06:42:50.265Z,40.58
2019-05-23T06:43:46.246Z,41.36
2019-05-23T06:44:46.154Z,41.68
2019-05-23T06:45:46.146Z,41.18
2019-05-23T06:46:46.138Z,41.82
2019-05-23T06:49:18.595Z,41.10
2019-05-23T06:50:18.586Z,40.64
2019-05-23T06:51:18.581Z,40.77
2019-05-23T06:52:18.585Z,40.60
2019-05-23T06:53:18.569Z,41.93
2019-05-23T06:54:18.558Z,40.95
2019-05-23T06:55:18.654Z,41.05
2019-05-23T06:56:18.547Z,42.98
2019-05-23T06:57:18.546Z,41.73
2019-05-23T06:58:18.591Z,40.88
2019-05-23T06:59:18.528Z,41.08
2019-05-23T07:00:18.520Z,41.06
2019-05-23T07:01:18.515Z,41.75
2019-05-23T07:02:18.509Z,41.40
2019-05-23T07:03:18.503Z,40.88
2019-05-23T07:04:18.494Z,40.60
2019-05-23T07:05:18.496Z,40.97
2019-05-23T07:06:18.484Z,40.79
2019-05-23T07:07:18.481Z,40.70
2019-05-23T07:08:18.469Z,40.43
2019-05-23T07:09:18.463Z,40.73
2019-05-23T07:10:18.511Z,40.73
2019-05-23T07:12:18.461Z,41.15
2019-05-23T07:13:18.455Z,40.72
2019-05-23T07:14:18.514Z,40.94
2019-05-23T07:15:18.436Z,40.57
2019-05-23T07:16:18.425Z,41.44
2019-05-23T07:17:18.420Z,40.54
2019-05-23T07:18:18.410Z,41.05
2019-05-23T07:19:18.406Z,40.88
2019-05-23T07:20:18.397Z,40.41
2019-05-23T07:22:19.573Z,40.46
2019-05-23T07:23:18.488Z,40.73
2019-05-23T07:24:18.374Z,40.81
2019-05-23T07:25:18.370Z,40.73
2019-05-23T07:26:18.362Z,40.59
2019-05-23T07:27:18.365Z,41.24
2019-05-23T07:28:18.349Z,40.81
2019-05-23T07:29:18.340Z,40.49
2019-05-23T07:30:18.360Z,40.97
2019-05-23T07:31:18.326Z,40.84
2019-05-23T07:32:18.319Z,40.56
2019-05-23T07:33:18.312Z,41.19
2019-05-23T07:34:18.306Z,40.69
2019-05-23T07:35:18.318Z,40.76
2019-05-23T07:36:18.293Z,46.47
2019-05-23T07:37:18.323Z,42.66
2019-05-23T07:38:18.304Z,40.98
2019-05-23T07:39:18.273Z,41.55
2019-05-23T07:41:18.265Z,40.88
2019-05-23T07:42:18.257Z,42.71
2019-05-23T07:43:18.248Z,41.54
2019-05-23T07:44:18.243Z,40.79
2019-05-23T07:45:18.236Z,41.20
2019-05-23T07:46:18.229Z,41.30
2019-05-23T07:47:18.229Z,41.19
2019-05-23T07:48:18.220Z,40.77
2019-05-23T07:49:18.212Z,40.59
2019-05-23T07:50:18.206Z,41.05
2019-05-23T07:51:18.199Z,40.75
2019-05-23T07:52:18.205Z,41.35
2019-05-23T07:53:18.184Z,44.95
2019-05-23T07:54:18.197Z,46.50
2019-05-23T07:55:18.180Z,36.97
2019-05-23T07:56:18.187Z,37.03
2019-05-23T07:57:18.160Z,38.31
2019-05-23T07:58:18.312Z,37.73
2019-05-23T07:59:18.150Z,40.02
2019-05-23T08:00:18.146Z,38.40
2019-05-23T08:01:18.171Z,37.82
2019-05-23T08:02:18.127Z,37.70
2019-05-23T08:03:18.122Z,36.96
2019-05-23T08:04:21.733Z,38.19
2019-05-23T08:05:18.107Z,37.89
2019-05-23T08:06:18.102Z,38.63
2019-05-23T08:08:18.093Z,37.81
2019-05-23T08:09:18.083Z,38.44
2019-05-23T08:10:32.645Z,39.00
2019-05-23T08:12:45.816Z,38.99
2019-05-23T08:13:45.809Z,38.69
2019-05-23T08:14:45.801Z,39.39
2019-05-23T08:15:45.795Z,36.96
2019-05-23T08:17:45.781Z,38.65
2019-05-23T08:18:45.776Z,37.71
2019-05-23T08:19:49.505Z,37.41
2019-05-23T08:20:45.763Z,36.15
2019-05-23T08:23:13.487Z,35.49
2019-05-23T08:24:13.487Z,37.06
2019-05-23T08:25:13.484Z,35.35
2019-05-23T08:26:13.479Z,35.77
2019-05-23T08:27:13.488Z,34.99
2019-05-23T08:28:13.488Z,36.11
2019-05-23T08:29:25.310Z,40.68
2019-05-23T08:30:15.473Z,35.72
2019-05-23T08:31:13.471Z,37.15
2019-05-23T08:32:13.464Z,36.11
2019-05-23T08:33:13.460Z,38.20
2019-05-23T08:34:13.450Z,37.04
2019-05-23T08:35:17.250Z,43.09
2019-05-23T08:36:13.442Z,42.46
2019-05-23T08:37:13.434Z,42.54
2019-05-23T08:38:13.430Z,45.22
2019-05-23T08:40:13.421Z,38.85
2019-05-23T08:41:46.623Z,37.61
2019-05-23T08:42:13.415Z,36.90
2019-05-23T08:43:13.698Z,36.40
2019-05-23T08:44:13.402Z,35.38
2019-05-23T08:45:13.440Z,38.91
2019-05-23T08:46:13.384Z,37.78
2019-05-23T08:48:13.375Z,37.41
2019-05-23T08:49:13.368Z,36.48
2019-05-23T08:50:13.359Z,38.44
2019-05-23T08:51:13.361Z,37.29
2019-05-23T08:52:13.349Z,38.26
2019-05-23T08:53:13.342Z,38.97
2019-05-23T08:54:13.336Z,41.48
2019-05-23T08:55:13.333Z,37.66
2019-05-23T08:56:19.269Z,37.71
2019-05-23T08:57:15.315Z,36.49
2019-05-23T08:58:13.315Z,35.49
2019-05-23T08:59:13.306Z,36.44
2019-05-23T09:00:13.303Z,38.02
2019-05-23T09:01:13.294Z,36.02
2019-05-23T09:02:13.294Z,38.11
2019-05-23T09:03:13.281Z,41.57
2019-05-23T09:04:13.282Z,40.68
2019-05-23T09:05:13.268Z,36.08
2019-05-23T09:06:13.259Z,36.27
2019-05-23T09:07:13.255Z,40.35
2019-05-23T09:08:16.693Z,37.04
2019-05-23T09:09:28.397Z,39.10
2019-05-23T09:11:40.958Z,40.22
2019-05-23T09:12:40.956Z,42.78
2019-05-23T09:13:40.952Z,38.68
2019-05-23T09:14:40.946Z,37.13
2019-05-23T09:15:40.942Z,38.49
2019-05-23T09:16:40.930Z,37.08
2019-05-23T09:17:52.218Z,36.92
2019-05-23T09:20:13.862Z,37.53
2019-05-23T09:21:13.858Z,37.32
2019-05-23T09:22:13.867Z,39.64
2019-05-23T09:24:41.516Z,39.00
2019-05-23T09:25:41.522Z,38.53
2019-05-23T09:26:41.510Z,39.61
2019-05-23T09:27:41.505Z,38.27
2019-05-23T09:28:41.495Z,38.52
2019-05-23T09:29:41.486Z,38.68
2019-05-23T09:30:41.479Z,37.41
2019-05-23T09:31:41.471Z,39.53
2019-05-23T09:32:41.468Z,38.74
2019-05-23T09:33:41.462Z,39.06
2019-05-23T09:34:41.456Z,38.34
2019-05-23T09:35:41.448Z,38.53
2019-05-23T09:36:41.446Z,37.60
2019-05-23T09:37:41.441Z,37.52
2019-05-23T09:38:41.443Z,38.13
2019-05-23T09:39:41.508Z,38.82
2019-05-23T09:40:41.421Z,37.61
2019-05-23T09:41:41.416Z,38.07
2019-05-23T09:42:41.418Z,38.10
2019-05-23T09:43:41.403Z,38.37
2019-05-23T09:44:41.397Z,38.00
2019-05-23T09:45:41.434Z,37.45
2019-05-23T09:46:41.397Z,38.91
2019-05-23T09:47:41.379Z,40.04
2019-05-23T09:50:09.094Z,47.19
2019-05-23T09:51:09.037Z,41.45
2019-05-23T09:52:09.714Z,37.76
2019-05-23T09:53:09.027Z,39.18
2019-05-23T09:54:09.020Z,38.94
2019-05-23T09:55:09.022Z,38.51
2019-05-23T09:56:09.038Z,37.69
2019-05-23T09:57:09.030Z,40.65
2019-05-23T09:58:08.994Z,39.17
2019-05-23T09:59:08.986Z,40.54
2019-05-23T10:00:09.081Z,40.25
2019-05-23T10:01:09.103Z,41.20
2019-05-23T10:02:08.987Z,40.09
2019-05-23T10:03:08.981Z,36.78
2019-05-23T10:04:08.975Z,39.00
2019-05-23T10:05:09.027Z,39.05
2019-05-23T10:06:08.963Z,37.81
2019-05-23T10:07:08.957Z,36.95
2019-05-23T10:08:08.948Z,37.59
2019-05-23T10:09:08.943Z,39.84
2019-05-23T10:10:08.935Z,38.01
2019-05-23T10:11:08.928Z,38.52
2019-05-23T10:12:08.923Z,37.59
2019-05-23T10:13:08.917Z,38.80
2019-05-23T10:14:08.913Z,38.46
2019-05-23T10:15:08.908Z,38.09
2019-05-23T10:16:09.305Z,38.55
2019-05-23T10:17:08.896Z,37.40
2019-05-23T10:18:09.582Z,37.51
2019-05-23T10:19:08.882Z,37.98
2019-05-23T10:20:08.874Z,38.53
2019-05-23T10:21:08.867Z,37.74
2019-05-23T10:22:08.863Z,38.52
2019-05-23T10:23:08.859Z,38.53
2019-05-23T10:24:08.850Z,38.29
2019-05-23T10:25:08.845Z,39.17
2019-05-23T10:26:08.858Z,39.16
2019-05-23T10:27:08.830Z,38.69
2019-05-23T10:28:08.835Z,38.15
2019-05-23T10:29:08.819Z,38.86
2019-05-23T10:30:08.811Z,40.45
2019-05-23T10:31:08.807Z,40.55
2019-05-23T10:32:08.797Z,44.84
2019-05-23T10:33:11.916Z,40.13
2019-05-23T10:34:08.787Z,39.14
2019-05-23T10:35:08.794Z,37.17
2019-05-23T10:36:08.772Z,38.38
2019-05-23T10:37:08.767Z,38.03
2019-05-23T10:38:08.828Z,46.82
2019-05-23T10:39:08.753Z,52.35
2019-05-23T10:40:08.747Z,41.33
2019-05-23T10:41:08.745Z,39.96
2019-05-23T10:42:08.734Z,48.99
2019-05-23T10:43:08.728Z,38.67
2019-05-23T10:44:08.753Z,38.41
2019-05-23T10:45:08.716Z,38.27
2019-05-23T11:30:08.745Z,52.71
2019-05-23T11:31:08.737Z,51.34
2019-05-23T11:32:08.730Z,47.21
2019-05-23T11:33:08.723Z,53.17
2019-05-23T11:34:08.718Z,47.86
2019-05-23T11:35:08.716Z,49.99
2019-05-23T11:36:08.704Z,51.66
2019-05-23T11:37:08.697Z,50.08
2019-05-23T11:38:08.693Z,48.69
2019-05-23T11:39:08.680Z,50.70
2019-05-23T11:40:08.675Z,53.73
2019-05-23T11:41:08.671Z,51.40
2019-05-23T11:42:08.665Z,53.09
2019-05-23T11:43:08.679Z,53.02
2019-05-23T11:44:08.650Z,54.60
2019-05-23T11:45:08.763Z,51.04
2019-05-23T11:46:08.652Z,53.08
2019-05-23T11:47:08.628Z,53.16
2019-05-23T11:48:08.705Z,48.96
2019-05-23T11:49:08.613Z,50.28
2019-05-23T11:50:08.620Z,51.50
2019-05-23T11:51:08.598Z,52.01
2019-05-23T11:52:08.592Z,50.07
2019-05-23T11:53:08.587Z,48.52
2019-05-23T11:54:09.773Z,45.46
2019-05-23T11:55:08.570Z,53.57
2019-05-23T11:56:08.574Z,52.26
2019-05-23T11:57:08.561Z,52.64
2019-05-23T11:58:08.551Z,48.15
2019-05-23T11:59:08.550Z,52.70
2019-05-23T12:00:08.546Z,55.10
2019-05-23T12:01:08.617Z,52.11
2019-05-23T12:02:08.526Z,49.86
2019-05-23T12:03:08.522Z,50.10
2019-05-23T12:04:08.526Z,52.49
2019-05-23T12:05:08.516Z,49.33
2019-05-23T12:06:08.506Z,48.71
2019-05-23T12:07:08.502Z,50.19
2019-05-23T12:08:08.496Z,54.06
2019-05-23T12:09:08.486Z,48.69
2019-05-23T12:10:08.482Z,53.20
2019-05-23T12:11:08.474Z,53.79
2019-05-23T12:12:08.467Z,51.48
2019-05-23T12:13:08.461Z,51.04
2019-05-23T12:14:08.455Z,49.71
2019-05-23T12:15:08.449Z,49.72
2019-05-23T12:16:08.443Z,51.40
2019-05-23T12:17:08.498Z,45.42
2019-05-23T12:18:08.428Z,53.03
2019-05-23T12:19:08.420Z,51.07
2019-05-23T12:20:08.425Z,53.80
2019-05-23T12:21:08.409Z,51.84
2019-05-23T12:22:08.400Z,53.91
2019-05-23T12:23:11.033Z,48.68
2019-05-23T12:24:08.387Z,54.68
2019-05-23T12:25:21.484Z,54.07
2019-05-23T12:26:10.372Z,51.74
2019-05-23T12:27:08.380Z,49.11
2019-05-23T12:28:08.360Z,53.15
2019-05-23T12:29:08.355Z,50.70
2019-05-23T12:30:08.350Z,49.73
2019-05-23T12:31:08.340Z,52.87
2019-05-23T12:32:08.335Z,50.44
2019-05-23T12:33:08.331Z,54.22
2019-05-23T12:34:08.323Z,51.59
2019-05-23T12:35:11.116Z,48.62
2019-05-23T12:36:08.312Z,51.42
2019-05-23T12:37:18.938Z,51.29
2019-05-23T12:38:10.298Z,54.95
2019-05-23T12:39:08.288Z,53.13
2019-05-23T12:40:08.282Z,53.98
2019-05-23T12:41:08.276Z,53.44
2019-05-23T12:42:08.271Z,53.31
2019-05-23T12:43:08.269Z,50.86
2019-05-23T12:44:08.261Z,48.93
2019-05-23T12:45:08.274Z,54.87
2019-05-23T12:46:08.260Z,49.65
2019-05-23T12:47:08.244Z,52.39
2019-05-23T12:48:08.235Z,52.53
2019-05-23T12:49:08.234Z,52.49
2019-05-23T12:50:08.226Z,54.47
2019-05-23T12:51:08.217Z,54.02
2019-05-23T12:52:08.258Z,54.79
2019-05-23T12:53:08.203Z,50.71
2019-05-23T12:54:08.219Z,52.44
2019-05-23T12:55:08.190Z,53.63
2019-05-23T12:56:08.204Z,51.77
2019-05-23T12:57:08.181Z,51.93
2019-05-23T12:58:08.173Z,56.61
2019-05-23T12:59:08.162Z,51.00
2019-05-23T13:00:08.153Z,51.44
2019-05-23T13:01:08.183Z,53.13
2019-05-23T13:02:08.144Z,49.80
2019-05-23T13:03:08.134Z,49.06
2019-05-23T13:04:10.278Z,52.38
2019-05-23T13:05:08.172Z,53.18
2019-05-23T13:06:08.116Z,55.45
2019-05-23T13:07:08.181Z,53.28
2019-05-23T13:08:08.111Z,51.11
2019-05-23T13:09:08.096Z,51.56
2019-05-23T13:10:08.089Z,49.46
2019-05-23T13:11:08.081Z,49.73
2019-05-23T13:12:08.081Z,48.81
2019-05-23T13:13:08.067Z,52.36
2019-05-23T13:14:08.061Z,59.10
2019-05-23T13:15:08.054Z,52.57
2019-05-23T13:16:08.046Z,53.65
2019-05-23T13:17:08.049Z,52.69
2019-05-23T13:18:08.048Z,50.80
2019-05-23T13:19:08.056Z,53.73
2019-05-23T13:20:08.027Z,52.27
2019-05-23T13:21:08.019Z,54.70
2019-05-23T13:22:08.008Z,52.19
2019-05-23T13:23:08.489Z,51.58
2019-05-23T13:24:07.995Z,55.21
2019-05-23T13:25:07.991Z,50.44
2019-05-23T13:26:07.984Z,47.65
2019-05-23T13:27:07.976Z,54.48
2019-05-23T13:28:07.970Z,53.89
2019-05-23T13:29:07.990Z,50.85
2019-05-23T13:30:08.080Z,51.78
2019-05-23T13:31:07.974Z,51.71
2019-05-23T13:32:07.967Z,49.68
2019-05-23T13:33:07.987Z,54.10
2019-05-23T13:34:07.979Z,50.21
2019-05-23T13:35:07.981Z,50.82
2019-05-23T13:36:07.975Z,52.19
2019-05-23T13:37:07.963Z,52.42
2019-05-23T13:38:07.960Z,49.67
2019-05-23T13:39:07.952Z,51.64
2019-05-23T13:40:07.952Z,53.30
2019-05-23T13:41:07.955Z,53.13
2019-05-23T13:42:07.952Z,50.14
2019-05-23T13:43:09.164Z,55.40
2019-05-23T13:44:07.924Z,51.32
2019-05-23T13:45:07.923Z,52.53
2019-05-23T13:46:07.908Z,55.01
2019-05-23T13:47:07.902Z,53.11
2019-05-23T13:48:07.890Z,52.32
2019-05-23T13:49:07.887Z,52.05
2019-05-23T13:50:07.885Z,48.74
2019-05-23T13:51:07.896Z,52.35
2019-05-23T13:52:07.887Z,53.98
2019-05-23T13:53:07.885Z,51.83
2019-05-23T13:54:07.875Z,49.36
2019-05-23T13:55:07.869Z,52.52
2019-05-23T13:56:07.960Z,47.50
2019-05-23T13:57:07.877Z,50.55
2019-05-23T13:58:07.849Z,55.03
2019-05-23T13:59:07.841Z,55.00
2019-05-23T14:00:07.835Z,50.70
2019-05-23T14:01:09.505Z,51.84
2019-05-23T14:02:07.871Z,49.72
2019-05-23T14:03:07.818Z,52.48
2019-05-23T14:04:07.816Z,53.93
2019-05-23T14:05:07.807Z,51.52
2019-05-23T14:06:07.796Z,52.91
2019-05-23T14:07:07.789Z,54.39
2019-05-23T14:08:12.888Z,52.65
2019-05-23T14:09:07.799Z,52.68
2019-05-23T14:10:07.789Z,53.63
2019-05-23T14:11:07.786Z,51.02
2019-05-23T14:12:20.740Z,51.48
2019-05-23T14:14:35.606Z,51.51
2019-05-23T14:15:35.595Z,51.29
2019-05-23T14:16:35.588Z,51.99
2019-05-23T14:17:35.579Z,51.74
2019-05-23T14:18:35.656Z,50.55
2019-05-23T14:19:35.567Z,51.01
2019-05-23T14:20:35.560Z,54.10
2019-05-23T14:21:35.554Z,47.78
2019-05-23T14:22:35.548Z,53.70
2019-05-23T14:23:35.539Z,53.23
2019-05-23T14:24:37.825Z,52.21
2019-05-23T14:25:35.534Z,49.49
2019-05-23T14:26:35.521Z,54.98
2019-05-23T14:27:35.518Z,52.02
2019-05-23T14:28:35.508Z,51.86
2019-05-23T14:29:35.517Z,52.72
2019-05-23T14:30:35.496Z,53.09
2019-05-23T14:31:35.489Z,47.98
2019-05-23T14:32:35.499Z,55.12
2019-05-23T14:33:35.482Z,52.67
2019-05-23T14:34:35.472Z,52.30
2019-05-23T14:35:35.464Z,53.95
2019-05-23T14:36:35.459Z,52.92
2019-05-23T14:37:35.453Z,48.48
2019-05-23T14:38:35.447Z,54.26
2019-05-23T14:39:35.439Z,51.24
2019-05-23T14:40:35.431Z,53.28
2019-05-23T14:41:44.876Z,54.74
2019-05-23T14:44:03.141Z,51.85
2019-05-23T14:45:03.144Z,50.19
2019-05-23T14:46:03.387Z,53.86
2019-05-23T14:47:03.121Z,50.68
2019-05-23T14:48:03.166Z,54.15
2019-05-23T14:49:03.113Z,52.64
2019-05-23T14:50:03.107Z,52.73
2019-05-23T14:51:03.123Z,53.41